Time;durP1;ratioP1;P1;durP2;ratioP2;P2;SDS_P1;SDS_P2;PMS_P1;PMS_P2;Temp;Humidity;BMP_temperature;BMP_pressure;BME280_temperature;BME280_humidity;BME280_pressure;Samples;Min_cycle;Max_cycle;Signal;HPM_P1;HPM_P2
2021/04/14 00:00:44;;;;;;;44.30;23.50;;;;;;;8.84;81.51;99490.88;117244;1209;22888;-60
2021/04/14 00:03:17;;;;;;;31.10;21.53;;;;;;;8.81;81.83;99482.39;117245;1209;22800;-60
2021/04/14 00:05:45;;;;;;;30.65;21.15;;;;;;;8.83;81.67;99485.69;117234;1214;22900;-60
2021/04/14 00:08:13;;;;;;;39.20;21.80;;;;;;;8.84;82.00;99488.16;117227;1214;23435;-60
2021/04/14 00:10:40;;;;;;;34.85;21.40;;;;;;;8.85;81.41;99492.53;117248;1209;22832;-60
2021/04/14 00:13:14;;;;;;;37.85;21.35;;;;;;;8.84;81.83;99493.59;117224;1209;22954;-60
2021/04/14 00:15:47;;;;;;;36.55;21.55;;;;;;;8.82;81.46;99497.63;117223;1209;22925;-60
2021/04/14 00:18:16;;;;;;;37.60;21.70;;;;;;;8.82;81.46;99494.91;117261;1215;22822;-60
2021/04/14 00:20:45;;;;;;;28.40;19.20;;;;;;;8.80;81.54;99492.44;117215;1214;22832;-59
2021/04/14 00:23:13;;;;;;;38.25;20.55;;;;;;;8.81;81.87;99494.09;117255;1209;22804;-59
2021/04/14 00:25:43;;;;;;;32.70;20.50;;;;;;;8.82;81.70;99490.30;117001;1205;28341;-58
2021/04/14 00:28:12;;;;;;;34.30;21.95;;;;;;;8.85;81.75;99491.70;113767;1206;23135;-57
2021/04/14 00:30:40;;;;;;;31.55;19.60;;;;;;;8.86;81.30;99485.20;117853;1209;22888;-59
2021/04/14 00:33:08;;;;;;;33.15;18.80;;;;;;;8.87;81.55;99481.42;117897;1205;24357;-59
2021/04/14 00:35:35;;;;;;;30.50;18.83;;;;;;;8.89;81.72;99486.61;117883;1205;23098;-59
2021/04/14 00:38:03;;;;;;;32.00;18.25;;;;;;;8.88;81.86;99476.81;117946;1206;22895;-59
2021/04/14 00:40:38;;;;;;;26.65;16.30;;;;;;;8.88;81.41;99482.24;117826;1205;22897;-59
2021/04/14 00:43:21;;;;;;;24.65;16.80;;;;;;;8.87;81.73;99475.98;117810;1209;22944;-59
2021/04/14 00:45:49;;;;;;;23.97;16.13;;;;;;;8.89;81.66;99473.84;117923;1205;22958;-59
2021/04/14 00:48:17;;;;;;;29.27;16.73;;;;;;;8.89;81.09;99471.13;117886;1206;22848;-59
2021/04/14 00:51:05;;;;;;;25.65;15.98;;;;;;;8.89;80.67;99468.41;117835;1205;23016;-59
2021/04/14 00:53:33;;;;;;;22.40;13.70;;;;;;;8.92;81.04;99464.38;117822;1205;22875;-60
2021/04/14 00:56:00;;;;;;;24.80;14.80;;;;;;;8.93;80.65;99474.19;117866;1204;23715;-59
2021/04/14 00:58:28;;;;;;;19.85;13.45;;;;;;;8.88;80.15;99455.08;117800;1206;23576;-59
2021/04/14 01:00:56;;;;;;;21.70;14.07;;;;;;;8.97;80.22;99464.44;117918;1205;22832;-59
2021/04/14 01:03:31;;;;;;;20.35;13.70;;;;;;;9.00;79.96;99462.05;117976;1206;24200;-59
2021/04/14 01:06:01;;;;;;;20.70;12.80;;;;;;;9.04;79.27;99451.52;117907;1206;23024;-59
2021/04/14 01:08:29;;;;;;;21.75;13.65;;;;;;;9.06;79.75;99454.81;117903;1208;22916;-59
2021/04/14 01:10:57;;;;;;;19.10;12.70;;;;;;;9.06;79.39;99452.92;117898;1205;22905;-59
2021/04/14 01:13:24;;;;;;;20.97;13.20;;;;;;;9.07;78.76;99457.28;117866;1205;22944;-59
2021/04/14 01:15:52;;;;;;;23.80;13.67;;;;;;;9.07;78.69;99454.56;117950;1206;23870;-59
2021/04/14 01:18:28;;;;;;;17.25;11.90;;;;;;;9.07;78.83;99460.00;117869;1209;23005;-59
2021/04/14 01:20:58;;;;;;;24.43;14.87;;;;;;;9.07;78.61;99448.30;117917;1206;22787;-59
2021/04/14 01:23:32;;;;;;;24.30;12.60;;;;;;;9.09;78.47;99454.32;117855;1206;23909;-59
2021/04/14 01:26:00;;;;;;;21.30;12.90;;;;;;;9.10;78.52;99448.60;116548;1206;26101;-57
2021/04/14 01:28:33;;;;;;;20.05;12.60;;;;;;;9.10;78.09;99455.94;117925;1208;22846;-59
2021/04/14 01:31:02;;;;;;;17.15;10.90;;;;;;;9.09;78.08;99449.67;117960;1205;22941;-59
2021/04/14 01:33:31;;;;;;;20.50;12.40;;;;;;;9.11;78.04;99457.58;117815;1206;22945;-59
2021/04/14 01:36:00;;;;;;;16.90;11.73;;;;;;;9.10;77.94;99458.66;117922;1206;22794;-59
2021/04/14 01:38:32;;;;;;;22.73;11.07;;;;;;;9.10;77.87;99461.38;117876;1208;22932;-59
2021/04/14 01:41:02;;;;;;;16.30;12.35;;;;;;;9.11;77.76;99460.30;117943;1205;24072;-59
2021/04/14 01:43:30;;;;;;;19.35;10.90;;;;;;;9.10;78.00;99459.48;117860;1206;22902;-60
2021/04/14 01:45:57;;;;;;;16.85;11.20;;;;;;;9.12;78.03;99453.80;117997;1208;22881;-60
2021/04/14 01:48:27;;;;;;;20.00;10.83;;;;;;;9.14;77.48;99452.48;117758;1208;23005;-60
2021/04/14 01:50:55;;;;;;;21.30;12.55;;;;;;;9.16;77.45;99446.80;117859;1209;22989;-60
2021/04/14 01:53:23;;;;;;;17.75;11.10;;;;;;;9.15;77.70;99445.97;117957;1205;22948;-59
2021/04/14 01:55:51;;;;;;;20.03;11.80;;;;;;;9.16;77.43;99442.18;117925;1204;23430;-60
2021/04/14 01:58:20;;;;;;;16.73;11.77;;;;;;;9.17;77.62;99445.72;117821;1206;22915;-60
2021/04/14 02:00:57;;;;;;;18.60;12.00;;;;;;;9.17;77.45;99443.83;117903;1208;22848;-59
2021/04/14 02:03:28;;;;;;;16.45;11.35;;;;;;;9.19;77.29;99429.98;117862;1205;22951;-59
2021/04/14 02:05:56;;;;;;;20.90;11.63;;;;;;;9.20;76.82;99437.89;117918;1206;22868;-60
2021/04/14 02:08:23;;;;;;;19.55;12.08;;;;;;;9.22;77.30;99429.49;117878;1205;24913;-59
2021/04/14 02:10:52;;;;;;;18.33;12.80;;;;;;;9.23;77.53;99436.58;117900;1205;22807;-59
2021/04/14 02:13:24;;;;;;;21.00;10.67;;;;;;;9.22;77.11;99432.21;117848;1205;22835;-59
2021/04/14 02:15:52;;;;;;;18.45;12.45;;;;;;;9.24;76.84;99432.75;117822;1205;22878;-61
2021/04/14 02:18:20;;;;;;;19.55;11.40;;;;;;;9.24;77.18;99416.45;117852;1205;22952;-59
2021/04/14 02:20:48;;;;;;;18.60;12.33;;;;;;;9.24;76.75;99424.59;117753;1205;22893;-59
2021/04/14 02:23:27;;;;;;;17.57;11.37;;;;;;;9.23;77.28;99425.70;117899;1206;22855;-59
2021/04/14 02:25:56;;;;;;;18.40;12.10;;;;;;;9.23;76.57;99434.65;118049;1208;22968;-59
2021/04/14 02:28:24;;;;;;;17.53;12.47;;;;;;;9.23;76.51;99430.31;117938;1205;22909;-59
2021/04/14 02:30:53;;;;;;;19.10;12.00;;;;;;;9.22;77.01;99424.05;117848;1205;23763;-59
2021/04/14 02:33:21;;;;;;;18.15;12.55;;;;;;;9.20;77.09;99428.92;117961;1206;22823;-59
2021/04/14 02:35:50;;;;;;;21.80;12.27;;;;;;;9.17;76.89;99432.95;117874;1206;22848;-59
2021/04/14 02:38:19;;;;;;;18.23;12.90;;;;;;;9.15;76.91;99431.55;117895;1207;22819;-59
2021/04/14 02:40:47;;;;;;;17.67;11.73;;;;;;;9.14;77.04;99421.75;117849;1205;23717;-59
2021/04/14 02:43:14;;;;;;;18.27;12.10;;;;;;;9.11;76.92;99423.07;117847;1205;23083;-59
2021/04/14 02:45:42;;;;;;;16.63;12.00;;;;;;;9.06;76.99;99416.77;117940;1205;22898;-59
2021/04/14 02:48:10;;;;;;;20.45;11.85;;;;;;;9.02;76.65;99419.16;117982;1208;22889;-59
2021/04/14 02:50:38;;;;;;;23.47;13.23;;;;;;;8.98;76.59;99428.87;117702;1205;22922;-59
2021/04/14 02:53:06;;;;;;;17.10;11.55;;;;;;;8.92;77.10;99432.60;117884;1204;22865;-59
2021/04/14 02:55:34;;;;;;;16.17;12.00;;;;;;;8.88;76.82;99441.48;117956;1206;22905;-59
2021/04/14 02:58:01;;;;;;;22.80;12.15;;;;;;;8.84;77.04;99446.59;118009;1204;23838;-59
2021/04/14 03:00:29;;;;;;;20.13;12.90;;;;;;;8.79;77.08;99443.81;117879;1205;23041;-59
2021/04/14 03:02:58;;;;;;;22.85;12.35;;;;;;;8.78;77.49;99442.99;117859;1205;22877;-59
2021/04/14 03:05:31;;;;;;;22.25;13.55;;;;;;;8.76;76.97;99445.13;117838;1206;22905;-59
2021/04/14 03:07:59;;;;;;;20.50;12.50;;;;;;;8.75;77.05;99446.20;117972;1206;22950;-59
2021/04/14 03:10:27;;;;;;;22.45;10.85;;;;;;;8.74;77.53;99444.55;117892;1206;22895;-59
2021/04/14 03:12:55;;;;;;;17.53;11.53;;;;;;;8.74;77.26;99452.70;117904;1205;22820;-59
2021/04/14 03:15:25;;;;;;;19.55;12.75;;;;;;;8.70;77.45;99450.72;117859;1206;22954;-59
2021/04/14 03:17:53;;;;;;;21.93;12.57;;;;;;;8.66;77.46;99449.55;117847;1205;23558;-60
2021/04/14 03:20:21;;;;;;;21.75;12.40;;;;;;;8.65;77.26;99439.79;117915;1206;22849;-59
2021/04/14 03:22:50;;;;;;;16.40;10.65;;;;;;;8.62;76.79;99438.39;117844;1205;22890;-59
2021/04/14 03:25:19;;;;;;;19.25;12.40;;;;;;;8.61;77.12;99444.89;117945;1206;22933;-59
2021/04/14 03:27:46;;;;;;;18.00;10.25;;;;;;;8.59;77.02;99435.34;117822;1204;23667;-59
2021/04/14 03:30:14;;;;;;;21.40;11.60;;;;;;;8.56;76.58;99435.82;117752;1209;23572;-59
2021/04/14 03:32:42;;;;;;;16.90;10.75;;;;;;;8.52;76.74;99438.20;117747;1207;22901;-59
2021/04/14 03:35:10;;;;;;;20.65;11.45;;;;;;;8.50;77.03;99435.76;117923;1205;22864;-60
2021/04/14 03:37:38;;;;;;;16.70;10.50;;;;;;;8.49;76.66;99433.28;117807;1209;22841;-60
2021/04/14 03:40:06;;;;;;;17.45;11.00;;;;;;;8.46;76.33;99434.59;117957;1206;22819;-59
2021/04/14 03:42:33;;;;;;;18.85;11.20;;;;;;;8.43;76.54;99439.69;117881;1206;23566;-59
2021/04/14 03:45:14;;;;;;;17.67;9.70;;;;;;;8.40;76.52;99432.85;117963;1206;22811;-59
2021/04/14 03:47:42;;;;;;;19.55;9.70;;;;;;;8.37;76.02;99436.05;117920;1205;22891;-59
2021/04/14 03:50:12;;;;;;;23.25;11.00;;;;;;;8.35;75.71;99437.39;117866;1209;23030;-59
2021/04/14 03:52:40;;;;;;;16.85;9.05;;;;;;;8.34;75.73;99436.56;117910;1209;23126;-59
2021/04/14 03:55:09;;;;;;;19.70;9.90;;;;;;;8.34;75.23;99435.74;117974;1205;22927;-59
2021/04/14 03:57:37;;;;;;;14.40;8.65;;;;;;;8.35;75.16;99438.22;117986;1208;22877;-59
2021/04/14 04:00:05;;;;;;;18.70;10.60;;;;;;;8.28;75.01;99423.94;117891;1205;23782;-59
2021/04/14 04:02:39;;;;;;;25.00;10.10;;;;;;;8.34;74.71;99433.03;117846;1206;24180;-59
2021/04/14 04:05:12;;;;;;;15.10;9.90;;;;;;;8.33;74.55;99447.67;118032;1206;22829;-59
2021/04/14 04:07:39;;;;;;;15.70;10.00;;;;;;;8.29;74.36;99441.05;117962;1205;22838;-59
2021/04/14 04:10:07;;;;;;;15.55;9.65;;;;;;;8.26;74.02;99441.52;117933;1205;22816;-59
2021/04/14 04:12:35;;;;;;;13.05;9.75;;;;;;;8.24;73.84;99449.91;117849;1205;23032;-59
2021/04/14 04:15:05;;;;;;;17.03;11.17;;;;;;;8.24;74.04;99446.37;117861;1208;22982;-59
2021/04/14 04:17:32;;;;;;;19.45;9.65;;;;;;;8.25;73.99;99442.59;117952;1205;23091;-59
2021/04/14 04:20:00;;;;;;;16.60;9.90;;;;;;;8.24;72.92;99449.91;117819;1206;23003;-59
2021/04/14 04:22:29;;;;;;;17.15;9.80;;;;;;;8.25;73.15;99448.84;117882;1205;23721;-59
2021/04/14 04:24:58;;;;;;;17.20;9.60;;;;;;;8.28;72.23;99444.82;117670;1206;22906;-59
2021/04/14 04:27:25;;;;;;;14.20;8.10;;;;;;;8.28;72.25;99428.54;118011;1205;22983;-59
2021/04/14 04:29:53;;;;;;;13.80;9.00;;;;;;;8.30;71.48;99434.55;117892;1204;22935;-59
2021/04/14 04:32:20;;;;;;;16.80;8.10;;;;;;;8.32;71.12;99438.70;117903;1206;24061;-59
2021/04/14 04:34:48;;;;;;;14.00;8.70;;;;;;;8.34;70.77;99435.74;117846;1205;22945;-59
2021/04/14 04:37:16;;;;;;;12.85;10.00;;;;;;;8.36;70.02;99434.44;117882;1205;23722;-59
2021/04/14 04:39:44;;;;;;;14.20;9.50;;;;;;;8.38;69.87;99434.16;117889;1205;23039;-59
2021/04/14 04:42:11;;;;;;;15.25;9.70;;;;;;;8.38;68.79;99434.98;117905;1209;22876;-59
2021/04/14 04:44:40;;;;;;;17.55;9.95;;;;;;;8.38;69.09;99439.59;117837;1205;22964;-59
2021/04/14 04:47:08;;;;;;;12.93;9.93;;;;;;;8.38;68.46;99445.02;118041;1209;22943;-59
2021/04/14 04:49:35;;;;;;;20.45;10.75;;;;;;;8.38;68.79;99439.59;117788;1205;24274;-59
2021/04/14 04:52:03;;;;;;;15.80;9.97;;;;;;;8.37;68.19;99440.66;117843;1206;23088;-59
2021/04/14 04:54:32;;;;;;;16.85;10.40;;;;;;;8.36;68.36;99452.61;117912;1206;23073;-59
2021/04/14 04:57:00;;;;;;;16.67;11.13;;;;;;;8.34;68.42;99452.03;117875;1205;22834;-59
2021/04/14 04:59:27;;;;;;;16.70;9.75;;;;;;;8.33;67.83;99453.09;117948;1206;22824;-59
2021/04/14 05:01:58;;;;;;;18.20;10.00;;;;;;;8.34;67.93;99457.46;117943;1205;22934;-59
2021/04/14 05:04:25;;;;;;;17.63;9.93;;;;;;;8.31;67.70;99458.73;117866;1209;23019;-58
2021/04/14 05:06:53;;;;;;;15.70;9.20;;;;;;;8.30;67.48;99457.09;117755;1205;22878;-59
2021/04/14 05:09:26;;;;;;;16.90;9.60;;;;;;;8.29;67.24;99457.33;117952;1206;22895;-59
2021/04/14 05:11:54;;;;;;;15.85;10.50;;;;;;;8.26;67.57;99455.09;117961;1205;22964;-59
2021/04/14 05:14:24;;;;;;;20.75;10.25;;;;;;;8.27;66.89;99456.75;117949;1206;22894;-59
2021/04/14 05:16:53;;;;;;;20.33;11.03;;;;;;;8.26;66.55;99452.38;114958;1205;23252;-57
2021/04/14 05:19:22;;;;;;;16.90;10.83;;;;;;;8.25;67.13;99456.16;113810;1207;23124;-56
2021/04/14 05:21:53;;;;;;;18.20;10.10;;;;;;;8.25;66.70;99456.98;117829;1205;22993;-59
2021/04/14 05:24:21;;;;;;;23.70;10.50;;;;;;;8.25;66.30;99453.45;117895;1208;22831;-58
2021/04/14 05:26:48;;;;;;;20.40;11.35;;;;;;;8.26;66.53;99457.81;117842;1206;22867;-59
2021/04/14 05:29:16;;;;;;;17.45;10.60;;;;;;;8.26;66.12;99468.67;117802;1205;23630;-59
2021/04/14 05:31:44;;;;;;;18.97;11.10;;;;;;;8.27;66.74;99459.46;117903;1205;22859;-59
2021/04/14 05:34:11;;;;;;;19.00;9.70;;;;;;;8.27;66.10;99465.71;117919;1208;22974;-59
2021/04/14 05:36:39;;;;;;;17.10;11.20;;;;;;;8.28;65.68;99466.53;117926;1206;23494;-58
2021/04/14 05:39:07;;;;;;;19.60;10.55;;;;;;;8.29;65.87;99462.76;117913;1205;22956;-58
2021/04/14 05:41:34;;;;;;;12.25;9.15;;;;;;;8.29;66.46;99462.76;117969;1208;23051;-59
2021/04/14 05:44:02;;;;;;;16.65;11.85;;;;;;;8.30;65.42;99458.98;117941;1206;22825;-59
2021/04/14 05:46:30;;;;;;;24.80;12.65;;;;;;;8.29;66.16;99455.44;117936;1208;22924;-59
2021/04/14 05:48:58;;;;;;;64.70;34.70;;;;;;;8.30;66.40;99458.98;117929;1205;22983;-59
2021/04/14 05:51:28;;;;;;;26.83;15.53;;;;;;;8.32;66.47;99465.02;117943;1206;22869;-58
2021/04/14 05:53:56;;;;;;;16.60;10.65;;;;;;;8.35;65.56;99459.93;117715;1205;23443;-59
2021/04/14 05:56:26;;;;;;;24.35;11.20;;;;;;;8.38;66.21;99461.31;117940;1207;23052;-59
2021/04/14 05:58:54;;;;;;;15.45;9.80;;;;;;;8.40;65.96;99462.72;117934;1206;23075;-59
2021/04/14 06:01:23;;;;;;;17.15;10.30;;;;;;;8.42;66.26;99460.59;117851;1205;23686;-59
2021/04/14 06:03:51;;;;;;;18.20;9.85;;;;;;;8.46;66.51;99458.20;117707;1205;23057;-59
2021/04/14 06:06:18;;;;;;;22.25;9.70;;;;;;;8.46;65.78;99455.49;117911;1206;22862;-59
2021/04/14 06:08:46;;;;;;;17.30;10.40;;;;;;;8.47;66.35;99455.25;117892;1205;23740;-59
2021/04/14 06:11:14;;;;;;;16.70;10.10;;;;;;;8.49;66.26;99463.16;118055;1206;22841;-59
2021/04/14 06:13:41;;;;;;;18.20;9.40;;;;;;;8.49;65.80;99468.58;117881;1204;23007;-59
2021/04/14 06:16:09;;;;;;;19.60;11.30;;;;;;;8.50;66.37;99464.80;117920;1205;22824;-59
2021/04/14 06:18:37;;;;;;;17.20;10.40;;;;;;;8.52;66.18;99465.35;117860;1206;22852;-59
2021/04/14 06:21:05;;;;;;;17.70;11.00;;;;;;;8.56;66.53;99466.52;117971;1205;23797;-59
2021/04/14 06:23:33;;;;;;;20.80;12.55;;;;;;;8.56;66.40;99454.83;117970;1206;24023;-59
2021/04/14 06:28:31;;;;;;;17.20;11.10;;;;;;;8.58;65.38;99456.23;117855;1206;22859;-59
2021/04/14 06:30:58;;;;;;;24.75;10.50;;;;;;;8.58;65.62;99455.41;117858;1208;22860;-59
2021/04/14 06:33:27;;;;;;;15.55;10.00;;;;;;;8.58;65.47;99461.66;117815;1206;22879;-59
2021/04/14 06:35:55;;;;;;;16.80;11.05;;;;;;;8.58;65.48;99461.66;117889;1206;23836;-59
2021/04/14 06:38:27;;;;;;;23.10;12.20;;;;;;;8.60;66.23;99464.96;117902;1204;22823;-59
2021/04/14 06:44:07;;;;;;;16.60;10.50;;;;;;;8.68;65.57;99469.15;117794;1206;22842;-58
2021/04/14 06:46:35;;;;;;;15.43;10.33;;;;;;;8.72;65.86;99473.84;115291;1209;23141;-56
2021/04/14 06:49:21;;;;;;;18.00;9.80;;;;;;;8.76;65.38;99466.86;113572;1208;23125;-58
2021/04/14 06:52:07;;;;;;;16.13;10.33;;;;;;;8.80;64.83;99469.91;117852;1206;22888;-59
2021/04/14 06:54:59;;;;;;;18.10;10.25;;;;;;;8.81;65.43;99460.66;117757;1209;22918;-59
2021/04/14 06:57:36;;;;;;;15.70;11.90;;;;;;;8.82;65.56;99468.56;117884;1205;23384;-59
2021/04/14 07:00:11;;;;;;;17.45;10.45;;;;;;;8.86;65.17;99472.45;117756;1206;22873;-59
2021/04/14 07:02:43;;;;;;;18.85;10.70;;;;;;;8.88;64.91;99472.20;117906;1205;23605;-59
2021/04/14 07:05:13;;;;;;;17.60;10.20;;;;;;;8.92;64.65;99473.36;117864;1209;22873;-59
2021/04/14 07:07:41;;;;;;;17.90;11.45;;;;;;;8.96;64.51;99468.22;117821;1205;22865;-59
2021/04/14 07:10:30;;;;;;;20.70;11.40;;;;;;;8.97;64.64;99478.02;117881;1206;24053;-59
2021/04/14 07:13:03;;;;;;;17.70;10.20;;;;;;;8.98;65.17;99476.95;117807;1205;22864;-59
2021/04/14 07:15:31;;;;;;;16.20;10.00;;;;;;;8.98;64.15;99477.78;117761;1205;23001;-59
2021/04/14 07:18:08;;;;;;;16.50;11.10;;;;;;;8.99;64.65;99482.14;117997;1205;22933;-59
2021/04/14 07:20:58;;;;;;;18.95;11.05;;;;;;;8.99;64.51;99481.33;117889;1205;24315;-59
2021/04/14 07:23:52;;;;;;;18.80;11.10;;;;;;;9.01;64.21;99487.34;117841;1204;23026;-59
2021/04/14 07:26:24;;;;;;;21.87;12.30;;;;;;;9.03;64.67;99474.33;117780;1206;22895;-59
2021/04/14 07:29:04;;;;;;;48.10;29.80;;;;;;;8.99;64.75;99468.56;117772;1205;23054;-55
2021/04/14 07:31:35;;;;;;;21.45;15.10;;;;;;;9.14;64.96;99486.98;117921;1207;22965;-55
2021/04/14 07:34:17;;;;;;;18.33;11.77;;;;;;;9.21;65.12;99482.22;117926;1205;22916;-55
2021/04/14 07:36:44;;;;;;;17.87;11.33;;;;;;;9.28;63.93;99479.30;117763;1209;22917;-56
2021/04/14 07:39:24;;;;;;;20.15;11.40;;;;;;;9.35;64.27;99478.06;117953;1205;22849;-55
2021/04/14 07:42:46;;;;;;;47.90;15.03;;;;;;;9.42;64.16;99478.69;117830;1205;22983;-59
2021/04/14 07:45:19;;;;;;;20.10;11.60;;;;;;;9.52;63.45;99478.81;117382;1209;22945;-59
2021/04/14 07:47:53;;;;;;;16.90;11.30;;;;;;;9.53;63.68;99463.31;117354;1208;26504;-59
2021/04/14 07:50:24;;;;;;;18.35;11.60;;;;;;;9.70;63.80;99474.97;117261;1212;23126;-59
2021/04/14 07:52:53;;;;;;;16.50;11.05;;;;;;;9.80;64.17;99474.29;117176;1209;23344;-59
2021/04/14 07:55:26;;;;;;;22.47;12.27;;;;;;;9.89;63.62;99479.02;117255;1209;22920;-58
2021/04/14 07:57:54;;;;;;;18.70;12.00;;;;;;;9.97;63.18;99479.63;117204;1209;22889;-58
2021/04/14 08:00:33;;;;;;;17.53;11.63;;;;;;;10.05;62.17;99473.75;117251;1212;23851;-58
2021/04/14 08:03:24;;;;;;;22.00;13.10;;;;;;;10.10;61.37;99471.09;117246;1212;22984;-58
2021/04/14 08:05:51;;;;;;;22.70;12.07;;;;;;;10.16;60.75;99467.33;117225;1209;23822;-58
2021/04/14 08:08:29;;;;;;;19.75;14.05;;;;;;;10.23;61.87;99462.55;117186;1209;23103;-59
2021/04/14 08:10:57;;;;;;;;;;;;;;;10.33;62.30;99478.15;117231;1216;23093;-59
2021/04/14 08:13:27;;;;;;;18.50;12.25;;;;;;;10.42;61.49;99473.87;117195;1209;22260;-59
2021/04/14 08:15:55;;;;;;;17.13;12.13;;;;;;;10.54;61.98;99480.80;117225;1209;22972;-58
2021/04/14 08:18:27;;;;;;;17.20;11.40;;;;;;;10.62;61.89;99472.16;117171;1209;23646;-59
2021/04/14 08:21:10;;;;;;;21.15;11.53;;;;;;;10.73;61.79;99470.34;117648;1205;22903;-59
2021/04/14 08:23:39;;;;;;;26.05;18.35;;;;;;;10.85;61.54;99468.25;117941;1205;22908;-59
2021/04/14 08:26:17;;;;;;;33.77;20.40;;;;;;;10.92;60.55;99471.59;117865;1206;22800;-58
2021/04/14 08:31:57;;;;;;;19.20;11.95;;;;;;;11.06;60.80;99466.50;113569;1202;23192;-54
2021/04/14 08:34:27;;;;;;;16.65;12.18;;;;;;;11.11;60.16;99461.06;117363;1208;23044;-58
2021/04/14 08:36:58;;;;;;;22.40;12.60;;;;;;;11.17;59.27;99467.39;117440;1208;22829;-58
2021/04/14 08:39:40;;;;;;;24.38;14.40;;;;;;;11.22;59.59;99453.80;117186;1209;24213;-57
2021/04/14 08:42:35;;;;;;;21.10;12.65;;;;;;;11.28;59.44;99450.81;117228;1212;23831;-58
2021/04/14 08:45:13;;;;;;;27.00;12.15;;;;;;;11.37;59.54;99453.88;117199;1209;22944;-58
2021/04/14 08:47:51;;;;;;;23.50;11.85;;;;;;;11.44;59.18;99456.35;117257;1209;23114;-58
2021/04/14 08:50:24;;;;;;;23.43;12.85;;;;;;;11.47;59.02;99443.01;117181;1209;22925;-58
2021/04/14 08:52:55;;;;;;;18.50;11.25;;;;;;;11.53;58.64;99443.87;117260;1209;23665;-58
2021/04/14 08:55:24;;;;;;;24.55;12.25;;;;;;;11.57;57.65;99444.95;117233;1209;22933;-58
2021/04/14 08:57:52;;;;;;;17.80;12.10;;;;;;;11.61;56.68;99443.34;117248;1209;22848;-58
2021/04/14 09:00:20;;;;;;;18.97;11.17;;;;;;;11.65;56.33;99437.09;117212;1208;24213;-58
2021/04/14 09:02:48;;;;;;;19.80;11.97;;;;;;;11.73;56.04;99429.46;117240;1209;22912;-58
2021/04/14 09:05:18;;;;;;;15.90;10.48;;;;;;;11.77;54.66;99431.43;117120;1208;22952;-58
2021/04/14 09:07:46;;;;;;;16.97;11.13;;;;;;;11.82;54.88;99428.73;117237;1209;22857;-58
2021/04/14 09:10:41;;;;;;;18.60;12.23;;;;;;;11.87;55.07;99428.72;117311;1206;23930;-58
2021/04/14 09:13:11;;;;;;;19.00;10.90;;;;;;;11.93;55.54;99416.73;117737;1210;22983;-58
2021/04/14 09:16:00;;;;;;;23.40;12.97;;;;;;;12.02;55.47;99417.02;117733;1206;22989;-58
2021/04/14 09:18:32;;;;;;;21.65;11.60;;;;;;;12.11;55.25;99411.86;117617;1206;22879;-58
2021/04/14 09:21:08;;;;;;;24.80;14.10;;;;;;;12.19;55.59;99409.41;117728;1206;22910;-58
2021/04/14 09:23:38;;;;;;;24.70;13.93;;;;;;;12.29;55.99;99403.95;117697;1206;23018;-58
2021/04/14 09:26:17;;;;;;;29.33;14.48;;;;;;;12.39;54.87;99403.16;117553;1211;24127;-58
2021/04/14 09:28:48;;;;;;;22.33;13.00;;;;;;;12.48;54.31;99406.97;117615;1206;22898;-58
2021/04/14 09:31:40;;;;;;;18.00;11.70;;;;;;;12.55;53.28;99399.30;117712;1206;23552;-58
2021/04/14 09:34:11;;;;;;;21.28;15.60;;;;;;;12.61;53.07;99395.48;117483;1209;22965;-58
2021/04/14 09:36:46;;;;;;;27.63;19.83;;;;;;;12.66;53.22;99389.20;115118;1206;23240;-57
2021/04/14 09:39:38;;;;;;;29.85;20.43;;;;;;;12.69;53.16;99391.39;117771;1206;22898;-59
2021/04/14 09:42:38;;;;;;;32.30;25.05;;;;;;;12.74;53.36;99388.63;117606;1206;23014;-58
2021/04/14 09:45:28;;;;;;;16.73;11.20;;;;;;;12.82;53.70;99379.89;117622;1210;23683;-57
2021/04/14 09:48:17;;;;;;;18.70;11.73;;;;;;;12.90;53.29;99370.30;117738;1206;23705;-58
2021/04/14 09:50:46;;;;;;;20.65;11.50;;;;;;;12.97;53.38;99374.39;117767;1206;22894;-57
2021/04/14 09:53:30;;;;;;;17.83;11.55;;;;;;;13.05;53.99;99372.99;117439;1207;22927;-57
2021/04/14 09:56:07;;;;;;;18.10;12.07;;;;;;;13.14;54.30;99382.25;117703;1206;22874;-58
2021/04/14 09:58:40;;;;;;;21.28;12.33;;;;;;;13.23;52.77;99371.61;117712;1208;22816;-57
2021/04/14 10:03:34;;;;;;;17.40;12.03;;;;;;;13.36;53.16;99360.88;113355;1206;23140;-58
2021/04/14 10:06:10;;;;;;;20.33;13.58;;;;;;;13.46;53.25;99360.01;117231;1209;22877;-57
2021/04/14 10:08:43;;;;;;;16.25;11.93;;;;;;;13.57;53.14;99358.03;117221;1208;22949;-57
2021/04/14 10:11:25;;;;;;;20.10;12.55;;;;;;;13.63;53.16;99355.00;117229;1209;22880;-56
2021/04/14 10:13:55;;;;;;;24.95;13.00;;;;;;;13.70;52.45;99347.31;117230;1209;22821;-57
2021/04/14 10:16:24;;;;;;;17.23;11.57;;;;;;;13.76;51.82;99340.69;117246;1209;22855;-56
2021/04/14 10:19:07;;;;;;;19.80;12.53;;;;;;;13.84;52.56;99346.68;117246;1209;22929;-56
2021/04/14 10:21:40;;;;;;;19.45;12.48;;;;;;;13.93;52.72;99345.78;117279;1212;22830;-57
2021/04/14 10:24:13;;;;;;;16.77;12.60;;;;;;;14.02;52.53;99337.77;117232;1209;23506;-56
2021/04/14 10:26:50;;;;;;;18.85;13.75;;;;;;;14.10;52.48;99337.19;117247;1208;23721;-56
2021/04/14 10:29:18;;;;;;;17.53;12.33;;;;;;;14.18;51.99;99333.00;117202;1208;22797;-56
2021/04/14 10:31:46;;;;;;;18.03;12.28;;;;;;;14.26;52.25;99338.70;117281;1209;22862;-56
2021/04/14 10:34:46;;;;;;;19.00;13.40;;;;;;;14.32;51.15;99337.53;117228;1209;22965;-56
2021/04/14 10:37:17;;;;;;;20.23;11.25;;;;;;;14.37;50.32;99336.69;116875;1212;23077;-56
2021/04/14 10:39:44;;;;;;;22.00;11.70;;;;;;;14.39;50.30;99335.30;116833;1212;22852;-56
2021/04/14 10:42:26;;;;;;;21.25;12.53;;;;;;;14.44;49.64;99334.45;116839;1212;22926;-56
2021/04/14 10:44:55;;;;;;;19.37;11.77;;;;;;;14.44;49.35;99332.52;116934;1212;22980;-56
2021/04/14 10:47:27;;;;;;;16.25;11.40;;;;;;;14.43;49.67;99338.29;116929;1212;24309;-56
2021/04/14 10:50:12;;;;;;;21.80;12.25;;;;;;;14.42;50.64;99323.80;116847;1212;24066;-56
2021/04/14 10:52:41;;;;;;;19.50;11.65;;;;;;;14.46;50.11;99326.76;116903;1212;23533;-56
2021/04/14 10:55:11;;;;;;;19.73;11.48;;;;;;;14.50;49.50;99327.83;116925;1212;23070;-56
2021/04/14 10:58:02;;;;;;;21.75;11.45;;;;;;;14.50;49.07;99327.83;116858;1212;22868;-56
2021/04/14 11:00:33;;;;;;;20.70;10.60;;;;;;;14.49;48.38;99327.01;116891;1212;22945;-56
2021/04/14 11:03:13;;;;;;;22.73;11.05;;;;;;;14.46;48.40;99322.09;116875;1212;22880;-56
2021/04/14 11:05:56;;;;;;;17.20;11.73;;;;;;;14.45;48.38;99312.23;116822;1212;22858;-56
2021/04/14 11:08:27;;;;;;;22.48;10.05;;;;;;;14.47;49.45;99311.95;116816;1212;23018;-56
2021/04/14 11:10:55;;;;;;;20.53;10.13;;;;;;;14.51;49.83;99307.53;116916;1212;23001;-56
2021/04/14 11:13:24;;;;;;;18.10;9.65;;;;;;;14.57;48.81;99314.58;116934;1209;22967;-56
2021/04/14 11:15:52;;;;;;;21.95;9.38;;;;;;;14.64;50.35;99304.11;117201;1209;22915;-56
2021/04/14 11:18:35;;;;;;;23.48;10.98;;;;;;;14.70;48.03;99296.66;117245;1209;22837;-56
2021/04/14 11:23:37;;;;;;;16.55;8.75;;;;;;;14.80;47.48;99302.02;117270;1209;22836;-57
2021/04/14 11:26:13;;;;;;;14.63;7.93;;;;;;;14.84;47.82;99295.67;117157;1209;23062;-56
2021/04/14 11:28:46;;;;;;;16.33;7.73;;;;;;;14.92;47.48;99290.64;117206;1209;22880;-57
2021/04/14 11:31:41;;;;;;;19.77;7.50;;;;;;;14.96;46.31;99286.21;117173;1209;22865;-56
2021/04/14 11:34:12;;;;;;;23.60;7.65;;;;;;;15.02;45.12;99283.09;117234;1209;23702;-57
2021/04/14 11:36:41;;;;;;;22.85;6.65;;;;;;;15.03;44.29;99281.98;117168;1209;22968;-57
2021/04/14 11:39:18;;;;;;;17.57;6.80;;;;;;;15.02;44.73;99279.53;117194;1209;23603;-56
2021/04/14 11:42:07;;;;;;;16.30;7.08;;;;;;;15.03;45.44;99279.24;117157;1214;22925;-56
2021/04/14 11:44:44;;;;;;;15.45;8.10;;;;;;;15.05;45.04;99274.28;116857;1214;22986;-56
2021/04/14 11:47:31;;;;;;;78.37;45.47;;;;;;;15.07;46.14;99276.73;116862;1212;22953;-56
2021/04/14 11:50:15;;;;;;;36.30;18.45;;;;;;;15.10;45.49;99282.47;116933;1215;23940;-56
2021/04/14 11:52:49;;;;;;;19.43;11.23;;;;;;;15.13;45.54;99267.34;116909;1215;23056;-57